createdAt,value
2023-04-14T00:03:18.373Z,9.73
2023-04-14T00:08:21.744Z,9.78
2023-04-14T00:13:25.134Z,9.69
2023-04-14T00:18:28.416Z,9.75
2023-04-14T00:23:31.610Z,9.61
2023-04-14T00:28:34.772Z,9.85
2023-04-14T00:33:37.884Z,9.88
2023-04-14T00:38:41.302Z,9.94
2023-04-14T00:43:44.669Z,9.68
2023-04-14T00:48:47.779Z,9.50
2023-04-14T00:53:51.140Z,9.64
2023-04-14T00:58:54.224Z,9.76
2023-04-14T01:03:57.874Z,9.48
2023-04-14T01:09:01.328Z,9.51
2023-04-14T01:14:09.951Z,9.64
2023-04-14T01:19:42.308Z,9.55
2023-04-14T01:24:57.649Z,9.45
2023-04-14T01:30:03.797Z,9.42
2023-04-14T01:35:13.364Z,9.35
2023-04-14T01:40:17.233Z,9.40
2023-04-14T01:45:21.767Z,9.31
2023-04-14T01:50:25.641Z,9.29
2023-04-14T01:55:28.882Z,9.21
2023-04-14T02:00:36.288Z,9.17
2023-04-14T02:05:39.653Z,8.93
2023-04-14T02:10:43.690Z,8.96
2023-04-14T02:15:49.087Z,9.05
2023-04-14T02:20:55.222Z,9.07
2023-04-14T02:26:01.944Z,9.07
2023-04-14T02:31:06.146Z,9.09
2023-04-14T02:36:18.636Z,9.04
2023-04-14T02:41:28.811Z,9.02
2023-04-14T02:46:33.738Z,9.17
2023-04-14T02:51:36.934Z,9.19
2023-04-14T02:56:40.447Z,9.19
2023-04-14T03:01:43.887Z,9.25
2023-04-14T03:06:47.352Z,9.15
2023-04-14T03:11:51.620Z,8.98
2023-04-14T03:16:55.472Z,9.14
2023-04-14T03:22:00.295Z,9.29
2023-04-14T03:27:22.218Z,9.25
2023-04-14T03:32:26.294Z,9.27
2023-04-14T03:37:30.514Z,9.24
2023-04-14T03:42:35.973Z,9.15
2023-04-14T03:47:39.623Z,9.12
2023-04-14T03:57:55.501Z,9.11
2023-04-14T04:03:00.395Z,9.21
2023-04-14T04:08:05.807Z,9.22
2023-04-14T04:13:17.057Z,9.13
2023-04-14T04:18:23.104Z,9.03
2023-04-14T04:23:28.652Z,9.03
2023-04-14T04:28:32.619Z,9.07
2023-04-14T04:33:36.782Z,9.08
2023-04-14T04:38:43.214Z,9.16
2023-04-14T04:43:47.117Z,9.11
2023-04-14T04:48:52.990Z,9.20
2023-04-14T04:53:56.472Z,9.17
2023-04-14T04:59:00.146Z,9.17
2023-04-14T05:04:03.897Z,9.12
2023-04-14T05:09:07.414Z,9.19
2023-04-14T05:14:10.662Z,9.32
2023-04-14T05:19:14.248Z,9.61
2023-04-14T05:24:17.593Z,9.66
2023-04-14T05:29:20.831Z,9.59
2023-04-14T05:34:24.044Z,9.58
2023-04-14T05:39:27.511Z,9.74
2023-04-14T05:44:32.038Z,9.86
2023-04-14T05:49:35.864Z,9.81
2023-04-14T05:54:41.868Z,10.04
2023-04-14T05:59:47.085Z,10.82
2023-04-14T06:04:51.412Z,11.07
2023-04-14T06:09:55.529Z,11.55
2023-04-14T06:14:59.485Z,12.02
2023-04-14T06:20:03.732Z,12.16
2023-04-14T06:25:07.748Z,12.18
2023-04-14T06:30:12.917Z,11.68
2023-04-14T06:35:29.668Z,11.11
2023-04-14T06:40:36.602Z,11.12
2023-04-14T06:45:41.609Z,12.35
2023-04-14T06:50:54.883Z,13.42
2023-04-14T06:56:02.406Z,13.19
2023-04-14T07:01:07.197Z,13.21
2023-04-14T07:06:12.108Z,13.52
2023-04-14T07:11:16.153Z,13.15
2023-04-14T07:16:20.390Z,13.16
2023-04-14T07:21:24.271Z,13.87
2023-04-14T07:26:28.116Z,13.92
2023-04-14T07:31:35.047Z,14.00
2023-04-14T07:36:39.428Z,14.21
2023-04-14T07:41:43.656Z,13.51
2023-04-14T07:46:47.746Z,13.56
2023-04-14T07:51:51.929Z,13.39
2023-04-14T07:56:56.852Z,13.24
2023-04-14T08:02:02.042Z,12.94
2023-04-14T08:07:06.179Z,12.87
2023-04-14T08:12:11.186Z,12.91
2023-04-14T08:17:15.621Z,13.35
2023-04-14T08:22:20.777Z,13.32
2023-04-14T08:27:24.910Z,13.61
2023-04-14T08:32:29.004Z,13.92
2023-04-14T08:37:32.853Z,14.83
2023-04-14T08:42:36.910Z,15.35
2023-04-14T08:47:41.957Z,15.61
2023-04-14T08:52:46.728Z,15.18
2023-04-14T08:57:52.097Z,15.14
2023-04-14T09:02:57.686Z,15.17
2023-04-14T09:08:01.607Z,15.09
2023-04-14T09:13:06.815Z,15.20
2023-04-14T09:18:12.399Z,15.22
2023-04-14T09:23:16.350Z,15.56
2023-04-14T09:28:22.268Z,15.68
2023-04-14T09:33:28.827Z,15.73
2023-04-14T09:38:34.908Z,15.73
2023-04-14T09:43:39.015Z,15.85
2023-04-14T09:48:57.019Z,16.00
2023-04-14T09:54:05.712Z,15.97
2023-04-14T09:59:11.270Z,16.04
2023-04-14T10:04:27.021Z,15.97
2023-04-14T10:09:38.608Z,16.25
2023-04-14T10:14:44.492Z,16.32
2023-04-14T10:19:49.809Z,16.45
2023-04-14T10:24:53.640Z,16.42
2023-04-14T10:29:57.763Z,16.48
2023-04-14T10:35:07.121Z,16.61
2023-04-14T10:40:11.340Z,16.36
2023-04-14T10:45:15.676Z,16.36
2023-04-14T10:50:27.705Z,16.50
2023-04-14T10:55:52.366Z,16.38
2023-04-14T11:00:59.870Z,16.37
2023-04-14T11:06:03.938Z,16.33
2023-04-14T11:11:07.954Z,16.21
2023-04-14T11:16:15.231Z,16.25
2023-04-14T11:21:22.615Z,16.29
2023-04-14T11:26:26.913Z,16.37
2023-04-14T11:31:31.655Z,16.63
2023-04-14T11:36:39.658Z,16.88
2023-04-14T11:41:47.675Z,16.93
2023-04-14T11:46:52.213Z,16.80
2023-04-14T11:51:57.059Z,16.91
2023-04-14T11:57:02.010Z,17.28
2023-04-14T12:02:09.871Z,17.41
2023-04-14T12:07:19.081Z,17.49
2023-04-14T12:12:24.260Z,17.42
2023-04-14T12:17:29.214Z,17.59
2023-04-14T12:22:34.646Z,17.65
2023-04-14T12:27:39.394Z,17.49
2023-04-14T12:32:44.472Z,17.54
2023-04-14T12:37:53.918Z,17.33
2023-04-14T12:42:57.836Z,17.21
2023-04-14T12:48:02.170Z,17.35
2023-04-14T12:53:27.017Z,17.52
2023-04-14T12:58:32.473Z,17.53
2023-04-14T13:03:41.250Z,17.63
2023-04-14T13:13:12.432Z,17.51
2023-04-14T13:18:17.926Z,17.48
2023-04-14T13:23:23.363Z,17.45
2023-04-14T13:28:29.144Z,17.34
2023-04-14T13:33:33.994Z,17.19
2023-04-14T13:38:38.540Z,17.01
2023-04-14T13:43:43.482Z,17.07
2023-04-14T13:48:48.016Z,17.05
2023-04-14T13:53:53.878Z,17.11
2023-04-14T13:58:57.801Z,17.04
2023-04-14T14:04:01.634Z,17.07
2023-04-14T14:09:06.731Z,17.17
2023-04-14T14:14:13.569Z,17.11
2023-04-14T14:19:18.707Z,17.06
2023-04-14T14:24:24.406Z,16.90
2023-04-14T14:29:30.074Z,16.82
2023-04-14T14:34:34.288Z,16.83
2023-04-14T14:39:38.011Z,16.70
2023-04-14T14:44:41.603Z,16.62
2023-04-14T14:49:56.507Z,16.62
2023-04-14T14:55:04.434Z,16.61
2023-04-14T15:00:09.655Z,16.58
2023-04-14T15:05:14.967Z,16.51
2023-04-14T15:10:20.337Z,16.48
2023-04-14T15:15:24.502Z,16.39
2023-04-14T15:20:28.852Z,16.43
2023-04-14T15:25:35.054Z,16.44
2023-04-14T15:30:41.529Z,16.41
2023-04-14T15:35:48.112Z,16.36
2023-04-14T15:40:54.410Z,16.32
2023-04-14T15:45:58.571Z,16.28
2023-04-14T15:51:05.327Z,16.24
2023-04-14T15:56:09.362Z,16.22
2023-04-14T16:01:13.975Z,16.17
2023-04-14T16:06:22.090Z,16.10
2023-04-14T16:11:26.338Z,16.06
2023-04-14T16:16:30.766Z,15.94
2023-04-14T16:21:34.705Z,15.80
2023-04-14T16:26:38.961Z,15.55
2023-04-14T16:31:43.936Z,15.38
2023-04-14T16:36:47.859Z,15.40
2023-04-14T16:41:52.886Z,15.24
2023-04-14T16:47:00.250Z,15.18
2023-04-14T16:52:05.870Z,15.33
2023-04-14T16:57:10.770Z,15.24
2023-04-14T17:02:15.398Z,15.21
2023-04-14T17:07:19.672Z,15.00
2023-04-14T17:12:23.950Z,14.83
2023-04-14T17:17:28.990Z,14.75
2023-04-14T17:22:36.209Z,14.51
2023-04-14T17:27:40.944Z,14.37
2023-04-14T17:32:46.314Z,14.32
2023-04-14T17:37:50.554Z,14.38
2023-04-14T17:42:56.695Z,14.49
2023-04-14T17:48:04.115Z,14.68
2023-04-14T17:53:07.719Z,14.75
2023-04-14T17:58:11.695Z,14.74
2023-04-14T18:03:16.538Z,14.60
2023-04-14T18:08:20.535Z,14.37
2023-04-14T18:13:24.230Z,14.18
2023-04-14T18:18:28.088Z,14.06
2023-04-14T18:23:31.995Z,13.95
2023-04-14T18:28:37.147Z,13.89
2023-04-14T18:33:41.176Z,13.68
2023-04-14T18:38:46.346Z,13.48
2023-04-14T18:43:50.763Z,13.39
2023-04-14T18:48:54.600Z,13.29
2023-04-14T18:53:58.752Z,13.21
2023-04-14T18:59:02.924Z,13.03
2023-04-14T19:04:08.023Z,12.95
2023-04-14T19:09:11.932Z,12.87
2023-04-14T19:14:15.309Z,12.86
2023-04-14T19:19:19.574Z,12.79
2023-04-14T19:24:22.958Z,12.70
2023-04-14T19:29:26.384Z,12.65
2023-04-14T19:34:29.860Z,12.68
2023-04-14T19:39:33.290Z,12.60
2023-04-14T19:44:36.980Z,12.64
2023-04-14T19:49:42.037Z,12.60
2023-04-14T19:54:46.013Z,12.53
2023-04-14T19:59:49.431Z,12.51
2023-04-14T20:04:53.573Z,12.43
2023-04-14T20:09:56.981Z,12.41
2023-04-14T20:15:00.278Z,12.34
2023-04-14T20:20:06.095Z,12.28
2023-04-14T20:25:09.817Z,12.12
2023-04-14T20:30:15.731Z,12.21
2023-04-14T20:35:19.168Z,12.14
2023-04-14T20:40:23.203Z,12.12
2023-04-14T20:45:27.844Z,12.26
2023-04-14T20:50:31.554Z,12.21
2023-04-14T20:55:36.826Z,12.24
2023-04-14T21:00:41.149Z,12.24
2023-04-14T21:05:44.534Z,12.05
2023-04-14T21:11:15.738Z,11.93
2023-04-14T21:16:12.127Z,11.88
2023-04-14T21:21:15.467Z,11.78
2023-04-14T21:26:18.855Z,11.76
2023-04-14T21:31:22.249Z,11.72
2023-04-14T21:36:27.576Z,11.72
2023-04-14T21:41:32.908Z,11.77
2023-04-14T21:46:37.211Z,11.65
2023-04-14T21:51:40.901Z,11.68
2023-04-14T21:56:48.117Z,11.81
2023-04-14T22:01:51.673Z,11.88
2023-04-14T22:06:55.137Z,11.70
2023-04-14T22:11:59.056Z,11.64
2023-04-14T22:17:05.784Z,11.82
2023-04-14T22:22:09.421Z,11.97
2023-04-14T22:27:14.424Z,11.86
2023-04-14T22:32:17.783Z,11.82
2023-04-14T22:37:22.314Z,11.71
2023-04-14T22:42:27.690Z,11.63
2023-04-14T22:47:31.014Z,11.70
2023-04-14T22:52:34.361Z,11.51
2023-04-14T22:57:37.785Z,11.27
2023-04-14T23:02:42.468Z,11.16
2023-04-14T23:07:45.959Z,11.03
2023-04-14T23:12:49.558Z,10.92
2023-04-14T23:17:53.404Z,10.81
2023-04-14T23:22:58.104Z,10.77
2023-04-14T23:28:01.820Z,10.73
2023-04-14T23:33:05.652Z,10.78
2023-04-14T23:38:09.385Z,10.74
2023-04-14T23:43:13.707Z,10.67
2023-04-14T23:48:17.723Z,10.66
2023-04-14T23:53:25.549Z,10.78
2023-04-14T23:58:30.149Z,10.92
